sensor_id;sensor_type;location;lat;lon;timestamp;pressure;altitude;pressure_sealevel;temperature;humidity
64025;BME280;50266;57.446;26.936;2023-06-10T00:00:22;100451.22;;;6.75;100.0
64025;BME280;50266;57.446;26.936;2023-06-10T00:01:22;100452.71;;;6.64;100.0
64025;BME280;50266;57.446;26.936;2023-06-10T00:02:23;100451.96;;;6.69;100.0
64025;BME280;50266;57.446;26.936;2023-06-10T00:03:22;100455.89;;;6.55;100.0
64025;BME280;50266;57.446;26.936;2023-06-10T00:04:22;100456.0;;;6.6;100.0
64025;BME280;50266;57.446;26.936;2023-06-10T00:05:22;100457.45;;;6.63;100.0
64025;BME280;50266;57.446;26.936;2023-06-10T00:06:23;100457.41;;;6.54;100.0
64025;BME280;50266;57.446;26.936;2023-06-10T00:07:22;100461.55;;;6.56;100.0
64025;BME280;50266;57.446;26.936;2023-06-10T00:08:23;100458.94;;;6.56;100.0
64025;BME280;50266;57.446;26.936;2023-06-10T00:09:23;100459.98;;;6.51;100.0
64025;BME280;50266;57.446;26.936;2023-06-10T00:10:23;100460.44;;;6.51;100.0
64025;BME280;50266;57.446;26.936;2023-06-10T00:11:23;100463.77;;;6.5;100.0
64025;BME280;50266;57.446;26.936;2023-06-10T00:12:23;100465.7;;;6.46;100.0
64025;BME280;50266;57.446;26.936;2023-06-10T00:13:23;100466.59;;;6.49;100.0
64025;BME280;50266;57.446;26.936;2023-06-10T00:14:23;100465.38;;;6.49;100.0
64025;BME280;50266;57.446;26.936;2023-06-10T00:15:23;100466.52;;;6.48;100.0
64025;BME280;50266;57.446;26.936;2023-06-10T00:16:23;100469.45;;;6.41;100.0
64025;BME280;50266;57.446;26.936;2023-06-10T00:17:23;100467.91;;;6.51;100.0
64025;BME280;50266;57.446;26.936;2023-06-10T00:18:23;100470.61;;;6.48;100.0
64025;BME280;50266;57.446;26.936;2023-06-10T00:19:24;100470.37;;;6.47;100.0
64025;BME280;50266;57.446;26.936;2023-06-10T00:20:23;100469.45;;;6.48;100.0
64025;BME280;50266;57.446;26.936;2023-06-10T00:21:23;100473.02;;;6.44;100.0
64025;BME280;50266;57.446;26.936;2023-06-10T00:22:23;100474.0;;;6.44;100.0
64025;BME280;50266;57.446;26.936;2023-06-10T00:23:23;100475.2;;;6.55;100.0
64025;BME280;50266;57.446;26.936;2023-06-10T00:24:23;100479.85;;;6.44;100.0
64025;BME280;50266;57.446;26.936;2023-06-10T00:25:23;100475.55;;;6.44;100.0
64025;BME280;50266;57.446;26.936;2023-06-10T00:26:23;100477.95;;;6.45;100.0
64025;BME280;50266;57.446;26.936;2023-06-10T00:27:24;100478.58;;;6.37;100.0
64025;BME280;50266;57.446;26.936;2023-06-10T00:28:23;100480.38;;;6.34;100.0
64025;BME280;50266;57.446;26.936;2023-06-10T00:29:23;100479.86;;;6.33;100.0
64025;BME280;50266;57.446;26.936;2023-06-10T00:30:23;100481.84;;;6.33;100.0
64025;BME280;50266;57.446;26.936;2023-06-10T00:31:23;100482.88;;;6.34;100.0
64025;BME280;50266;57.446;26.936;2023-06-10T00:32:23;100482.53;;;6.36;100.0
64025;BME280;50266;57.446;26.936;2023-06-10T00:33:23;100481.64;;;6.36;100.0
64025;BME280;50266;57.446;26.936;2023-06-10T00:34:23;100483.47;;;6.34;100.0
64025;BME280;50266;57.446;26.936;2023-06-10T00:35:23;100486.16;;;6.32;100.0
64025;BME280;50266;57.446;26.936;2023-06-10T00:36:23;100486.94;;;6.29;100.0
64025;BME280;50266;57.446;26.936;2023-06-10T00:37:23;100485.52;;;6.29;100.0
64025;BME280;50266;57.446;26.936;2023-06-10T00:38:23;100489.23;;;6.27;100.0
64025;BME280;50266;57.446;26.936;2023-06-10T00:39:23;100489.59;;;6.35;100.0
64025;BME280;50266;57.446;26.936;2023-06-10T00:40:23;100490.97;;;6.38;100.0
64025;BME280;50266;57.446;26.936;2023-06-10T00:41:23;100491.71;;;6.39;100.0
64025;BME280;50266;57.446;26.936;2023-06-10T00:42:23;100488.41;;;6.31;100.0
64025;BME280;50266;57.446;26.936;2023-06-10T00:43:23;100492.98;;;6.24;100.0
64025;BME280;50266;57.446;26.936;2023-06-10T00:44:28;100492.26;;;6.23;100.0
64025;BME280;50266;57.446;26.936;2023-06-10T00:45:25;100493.89;;;6.22;100.0
64025;BME280;50266;57.446;26.936;2023-06-10T00:46:25;100492.84;;;6.25;100.0
64025;BME280;50266;57.446;26.936;2023-06-10T00:47:25;100499.09;;;6.12;100.0
64025;BME280;50266;57.446;26.936;2023-06-10T00:48:25;100501.62;;;6.19;100.0
64025;BME280;50266;57.446;26.936;2023-06-10T00:49:25;100499.66;;;6.15;100.0
64025;BME280;50266;57.446;26.936;2023-06-10T00:50:25;100498.45;;;6.19;100.0
64025;BME280;50266;57.446;26.936;2023-06-10T00:51:25;100500.58;;;6.12;100.0
64025;BME280;50266;57.446;26.936;2023-06-10T00:52:26;100505.02;;;5.98;100.0
64025;BME280;50266;57.446;26.936;2023-06-10T00:53:25;100501.75;;;5.75;100.0
64025;BME280;50266;57.446;26.936;2023-06-10T00:54:25;100502.34;;;5.7;100.0
64025;BME280;50266;57.446;26.936;2023-06-10T00:55:25;100504.99;;;5.64;100.0
64025;BME280;50266;57.446;26.936;2023-06-10T00:56:25;100505.45;;;5.55;100.0
64025;BME280;50266;57.446;26.936;2023-06-10T00:57:25;100506.35;;;5.6;100.0
64025;BME280;50266;57.446;26.936;2023-06-10T00:58:25;100507.94;;;5.65;100.0
64025;BME280;50266;57.446;26.936;2023-06-10T00:59:25;100511.02;;;5.5;100.0
64025;BME280;50266;57.446;26.936;2023-06-10T01:00:25;100509.28;;;5.44;100.0
64025;BME280;50266;57.446;26.936;2023-06-10T01:01:25;100510.75;;;5.56;100.0
64025;BME280;50266;57.446;26.936;2023-06-10T01:02:25;100511.06;;;5.69;100.0
64025;BME280;50266;57.446;26.936;2023-06-10T01:03:25;100509.12;;;5.67;100.0
64025;BME280;50266;57.446;26.936;2023-06-10T01:04:25;100510.74;;;5.58;100.0
64025;BME280;50266;57.446;26.936;2023-06-10T01:05:25;100514.91;;;5.57;100.0
64025;BME280;50266;57.446;26.936;2023-06-10T01:07:32;100515.17;;;5.47;100.0
64025;BME280;50266;57.446;26.936;2023-06-10T01:08:38;100513.16;;;5.45;100.0
64025;BME280;50266;57.446;26.936;2023-06-10T01:09:33;100515.5;;;5.41;100.0
64025;BME280;50266;57.446;26.936;2023-06-10T01:10:50;100499.43;;;5.48;100.0
64025;BME280;50266;57.446;26.936;2023-06-10T01:11:40;100508.16;;;5.48;100.0
64025;BME280;50266;57.446;26.936;2023-06-10T01:12:41;100506.34;;;5.55;100.0
64025;BME280;50266;57.446;26.936;2023-06-10T01:13:40;100504.42;;;5.47;100.0
64025;BME280;50266;57.446;26.936;2023-06-10T01:14:39;100502.2;;;5.49;100.0
64025;BME280;50266;57.446;26.936;2023-06-10T01:15:39;100506.03;;;5.58;100.0
64025;BME280;50266;57.446;26.936;2023-06-10T01:16:39;100509.27;;;5.54;100.0
64025;BME280;50266;57.446;26.936;2023-06-10T01:18:40;100506.74;;;5.6;100.0
64025;BME280;50266;57.446;26.936;2023-06-10T01:19:39;100509.19;;;5.55;100.0
64025;BME280;50266;57.446;26.936;2023-06-10T01:20:39;100515.97;;;5.6;100.0
64025;BME280;50266;57.446;26.936;2023-06-10T01:21:39;100513.5;;;5.66;100.0
64025;BME280;50266;57.446;26.936;2023-06-10T01:22:39;100510.93;;;5.57;100.0
64025;BME280;50266;57.446;26.936;2023-06-10T01:23:39;100514.18;;;5.65;100.0
64025;BME280;50266;57.446;26.936;2023-06-10T01:24:39;100513.36;;;5.47;100.0
64025;BME280;50266;57.446;26.936;2023-06-10T01:25:41;100511.89;;;5.4;100.0
64025;BME280;50266;57.446;26.936;2023-06-10T01:26:39;100513.91;;;5.53;100.0
64025;BME280;50266;57.446;26.936;2023-06-10T01:27:40;100514.86;;;5.59;100.0
64025;BME280;50266;57.446;26.936;2023-06-10T01:28:59;100515.45;;;5.6;100.0
64025;BME280;50266;57.446;26.936;2023-06-10T01:29:43;100518.91;;;5.57;100.0
64025;BME280;50266;57.446;26.936;2023-06-10T01:30:44;100516.41;;;5.49;100.0
64025;BME280;50266;57.446;26.936;2023-06-10T01:31:44;100518.39;;;5.4;100.0
64025;BME280;50266;57.446;26.936;2023-06-10T01:32:48;100519.17;;;5.29;100.0
64025;BME280;50266;57.446;26.936;2023-06-10T01:33:47;100521.79;;;5.28;100.0
64025;BME280;50266;57.446;26.936;2023-06-10T01:34:46;100523.37;;;5.38;100.0
64025;BME280;50266;57.446;26.936;2023-06-10T01:35:47;100526.16;;;5.35;100.0
64025;BME280;50266;57.446;26.936;2023-06-10T01:36:47;100528.5;;;5.21;100.0
64025;BME280;50266;57.446;26.936;2023-06-10T01:37:46;100526.3;;;5.26;100.0
64025;BME280;50266;57.446;26.936;2023-06-10T01:38:46;100527.39;;;5.26;100.0
64025;BME280;50266;57.446;26.936;2023-06-10T01:39:46;100531.84;;;5.1;100.0
64025;BME280;50266;57.446;26.936;2023-06-10T01:40:46;100529.67;;;4.98;100.0
64025;BME280;50266;57.446;26.936;2023-06-10T01:41:47;100529.02;;;4.96;100.0
64025;BME280;50266;57.446;26.936;2023-06-10T01:42:46;100532.19;;;4.99;100.0
64025;BME280;50266;57.446;26.936;2023-06-10T01:43:46;100529.34;;;5.1;100.0
64025;BME280;50266;57.446;26.936;2023-06-10T01:44:46;100530.66;;;5.29;100.0
64025;BME280;50266;57.446;26.936;2023-06-10T01:45:46;100535.12;;;5.38;100.0
64025;BME280;50266;57.446;26.936;2023-06-10T01:46:46;100535.86;;;5.54;100.0
64025;BME280;50266;57.446;26.936;2023-06-10T01:47:46;100536.24;;;5.44;100.0
64025;BME280;50266;57.446;26.936;2023-06-10T01:48:46;100533.48;;;5.47;100.0
64025;BME280;50266;57.446;26.936;2023-06-10T01:49:46;100536.75;;;5.47;100.0
64025;BME280;50266;57.446;26.936;2023-06-10T01:50:46;100537.23;;;5.33;100.0
64025;BME280;50266;57.446;26.936;2023-06-10T01:51:46;100539.94;;;5.27;100.0
64025;BME280;50266;57.446;26.936;2023-06-10T01:52:46;100536.73;;;5.23;100.0
64025;BME280;50266;57.446;26.936;2023-06-10T01:53:47;100537.0;;;5.32;100.0
64025;BME280;50266;57.446;26.936;2023-06-10T01:54:46;100539.0;;;5.42;100.0
64025;BME280;50266;57.446;26.936;2023-06-10T01:55:46;100539.75;;;5.26;100.0
64025;BME280;50266;57.446;26.936;2023-06-10T01:56:46;100540.2;;;5.23;100.0
64025;BME280;50266;57.446;26.936;2023-06-10T01:57:46;100539.03;;;5.17;100.0
64025;BME280;50266;57.446;26.936;2023-06-10T01:58:46;100539.58;;;5.15;100.0
64025;BME280;50266;57.446;26.936;2023-06-10T01:59:46;100540.88;;;5.27;100.0
64025;BME280;50266;57.446;26.936;2023-06-10T02:00:46;100545.55;;;5.39;100.0
64025;BME280;50266;57.446;26.936;2023-06-10T02:01:46;100539.64;;;5.4;100.0
64025;BME280;50266;57.446;26.936;2023-06-10T02:02:46;100545.8;;;5.33;100.0
64025;BME280;50266;57.446;26.936;2023-06-10T02:03:46;100544.65;;;5.42;100.0
64025;BME280;50266;57.446;26.936;2023-06-10T02:04:46;100548.41;;;5.51;100.0
64025;BME280;50266;57.446;26.936;2023-06-10T02:05:46;100547.83;;;5.52;100.0
64025;BME280;50266;57.446;26.936;2023-06-10T02:06:46;100548.03;;;5.55;100.0
64025;BME280;50266;57.446;26.936;2023-06-10T02:07:46;100549.44;;;5.64;100.0
64025;BME280;50266;57.446;26.936;2023-06-10T02:08:46;100548.81;;;5.63;100.0
64025;BME280;50266;57.446;26.936;2023-06-10T02:09:46;100554.2;;;5.72;100.0
64025;BME280;50266;57.446;26.936;2023-06-10T02:10:46;100554.38;;;5.68;100.0
64025;BME280;50266;57.446;26.936;2023-06-10T02:11:46;100554.84;;;5.67;100.0
64025;BME280;50266;57.446;26.936;2023-06-10T02:12:47;100558.12;;;5.72;100.0
64025;BME280;50266;57.446;26.936;2023-06-10T02:13:47;100553.53;;;5.67;100.0
64025;BME280;50266;57.446;26.936;2023-06-10T02:14:47;100553.9;;;5.67;100.0
64025;BME280;50266;57.446;26.936;2023-06-10T02:15:47;100558.78;;;5.7;100.0
64025;BME280;50266;57.446;26.936;2023-06-10T02:16:47;100558.32;;;5.74;100.0
64025;BME280;50266;57.446;26.936;2023-06-10T02:17:47;100556.45;;;5.7;100.0
64025;BME280;50266;57.446;26.936;2023-06-10T02:18:47;100558.08;;;5.67;100.0
64025;BME280;50266;57.446;26.936;2023-06-10T02:19:47;100556.55;;;5.75;100.0
64025;BME280;50266;57.446;26.936;2023-06-10T02:20:47;100560.31;;;5.68;100.0
64025;BME280;50266;57.446;26.936;2023-06-10T02:21:47;100558.96;;;5.71;100.0
64025;BME280;50266;57.446;26.936;2023-06-10T02:22:47;100559.59;;;5.68;100.0
64025;BME280;50266;57.446;26.936;2023-06-10T02:23:47;100558.25;;;5.75;100.0
64025;BME280;50266;57.446;26.936;2023-06-10T02:24:47;100558.25;;;5.77;100.0
64025;BME280;50266;57.446;26.936;2023-06-10T02:25:47;100557.33;;;5.86;100.0
64025;BME280;50266;57.446;26.936;2023-06-10T02:26:47;100559.77;;;5.91;100.0
64025;BME280;50266;57.446;26.936;2023-06-10T02:27:48;100562.12;;;5.82;100.0
64025;BME280;50266;57.446;26.936;2023-06-10T02:28:47;100558.31;;;5.8;100.0
64025;BME280;50266;57.446;26.936;2023-06-10T02:29:47;100562.5;;;5.93;100.0
64025;BME280;50266;57.446;26.936;2023-06-10T02:30:47;100562.01;;;5.88;100.0
64025;BME280;50266;57.446;26.936;2023-06-10T02:31:47;100564.59;;;5.78;100.0
64025;BME280;50266;57.446;26.936;2023-06-10T02:32:47;100562.86;;;5.87;100.0
64025;BME280;50266;57.446;26.936;2023-06-10T02:33:47;100567.59;;;5.87;100.0
64025;BME280;50266;57.446;26.936;2023-06-10T02:34:48;100568.84;;;5.86;100.0
64025;BME280;50266;57.446;26.936;2023-06-10T02:35:48;100562.09;;;5.85;100.0
64025;BME280;50266;57.446;26.936;2023-06-10T02:36:48;100567.75;;;5.79;100.0
64025;BME280;50266;57.446;26.936;2023-06-10T02:37:48;100563.79;;;5.61;100.0
64025;BME280;50266;57.446;26.936;2023-06-10T02:38:48;100564.83;;;5.59;100.0
64025;BME280;50266;57.446;26.936;2023-06-10T02:39:48;100563.52;;;5.73;100.0
64025;BME280;50266;57.446;26.936;2023-06-10T02:40:48;100565.6;;;5.85;100.0
64025;BME280;50266;57.446;26.936;2023-06-10T02:41:48;100558.52;;;5.83;100.0
64025;BME280;50266;57.446;26.936;2023-06-10T02:42:48;100563.73;;;5.98;100.0
64025;BME280;50266;57.446;26.936;2023-06-10T02:43:48;100564.72;;;6.08;100.0
64025;BME280;50266;57.446;26.936;2023-06-10T02:44:48;100565.53;;;6.12;100.0
64025;BME280;50266;57.446;26.936;2023-06-10T02:45:48;100569.89;;;6.15;100.0
64025;BME280;50266;57.446;26.936;2023-06-10T02:46:48;100567.15;;;6.22;100.0
64025;BME280;50266;57.446;26.936;2023-06-10T02:47:48;100568.08;;;6.3;100.0
64025;BME280;50266;57.446;26.936;2023-06-10T02:48:48;100571.13;;;6.29;100.0
64025;BME280;50266;57.446;26.936;2023-06-10T02:49:48;100571.16;;;6.32;100.0
64025;BME280;50266;57.446;26.936;2023-06-10T02:50:48;100574.71;;;6.31;100.0
64025;BME280;50266;57.446;26.936;2023-06-10T02:51:49;100574.7;;;6.4;100.0
64025;BME280;50266;57.446;26.936;2023-06-10T02:52:48;100574.83;;;6.51;100.0
64025;BME280;50266;57.446;26.936;2023-06-10T02:53:48;100574.12;;;6.55;100.0
64025;BME280;50266;57.446;26.936;2023-06-10T02:54:48;100574.1;;;6.46;100.0
64025;BME280;50266;57.446;26.936;2023-06-10T02:55:48;100580.58;;;6.51;100.0
64025;BME280;50266;57.446;26.936;2023-06-10T02:56:48;100578.73;;;6.49;100.0
64025;BME280;50266;57.446;26.936;2023-06-10T02:57:48;100580.32;;;6.58;100.0
64025;BME280;50266;57.446;26.936;2023-06-10T02:58:48;100581.02;;;6.58;100.0
64025;BME280;50266;57.446;26.936;2023-06-10T02:59:48;100579.95;;;6.66;100.0
64025;BME280;50266;57.446;26.936;2023-06-10T03:00:48;100585.65;;;6.71;100.0
64025;BME280;50266;57.446;26.936;2023-06-10T03:01:48;100582.55;;;6.73;100.0
64025;BME280;50266;57.446;26.936;2023-06-10T03:02:48;100580.64;;;6.72;100.0
64025;BME280;50266;57.446;26.936;2023-06-10T03:03:48;100582.23;;;6.69;100.0
64025;BME280;50266;57.446;26.936;2023-06-10T03:04:48;100587.25;;;6.69;100.0
64025;BME280;50266;57.446;26.936;2023-06-10T03:05:48;100588.03;;;6.77;100.0
64025;BME280;50266;57.446;26.936;2023-06-10T03:06:48;100588.19;;;6.86;100.0
64025;BME280;50266;57.446;26.936;2023-06-10T03:07:48;100592.78;;;6.84;100.0
64025;BME280;50266;57.446;26.936;2023-06-10T03:08:48;100596.73;;;6.85;100.0
64025;BME280;50266;57.446;26.936;2023-06-10T03:09:49;100592.71;;;6.85;100.0
64025;BME280;50266;57.446;26.936;2023-06-10T03:10:48;100594.44;;;6.83;100.0
64025;BME280;50266;57.446;26.936;2023-06-10T03:11:48;100599.7;;;6.94;100.0
64025;BME280;50266;57.446;26.936;2023-06-10T03:12:48;100597.8;;;6.99;100.0
64025;BME280;50266;57.446;26.936;2023-06-10T03:13:48;100598.31;;;6.97;100.0
64025;BME280;50266;57.446;26.936;2023-06-10T03:14:48;100602.42;;;7.08;100.0
64025;BME280;50266;57.446;26.936;2023-06-10T03:15:48;100604.7;;;7.08;100.0
64025;BME280;50266;57.446;26.936;2023-06-10T03:16:48;100607.34;;;7.14;100.0
64025;BME280;50266;57.446;26.936;2023-06-10T03:17:48;100603.95;;;7.15;100.0
64025;BME280;50266;57.446;26.936;2023-06-10T03:18:49;100609.2;;;7.16;100.0
64025;BME280;50266;57.446;26.936;2023-06-10T03:19:49;100606.91;;;7.18;100.0
64025;BME280;50266;57.446;26.936;2023-06-10T03:20:49;100605.57;;;7.19;100.0
64025;BME280;50266;57.446;26.936;2023-06-10T03:21:57;100605.55;;;7.13;100.0
64025;BME280;50266;57.446;26.936;2023-06-10T03:22:49;100607.8;;;7.2;100.0
64025;BME280;50266;57.446;26.936;2023-06-10T03:23:49;100607.66;;;7.27;100.0
64025;BME280;50266;57.446;26.936;2023-06-10T03:24:49;100606.61;;;7.36;100.0
64025;BME280;50266;57.446;26.936;2023-06-10T03:25:49;100607.02;;;7.37;100.0
64025;BME280;50266;57.446;26.936;2023-06-10T03:26:49;100603.45;;;7.29;100.0
64025;BME280;50266;57.446;26.936;2023-06-10T03:27:49;100606.91;;;7.29;100.0
64025;BME280;50266;57.446;26.936;2023-06-10T03:28:49;100607.17;;;7.28;100.0
64025;BME280;50266;57.446;26.936;2023-06-10T03:29:49;100604.05;;;7.37;100.0
64025;BME280;50266;57.446;26.936;2023-06-10T03:30:49;100603.39;;;7.38;100.0
64025;BME280;50266;57.446;26.936;2023-06-10T03:31:49;100606.94;;;7.47;100.0
64025;BME280;50266;57.446;26.936;2023-06-10T03:32:49;100601.78;;;7.63;100.0
64025;BME280;50266;57.446;26.936;2023-06-10T03:33:49;100601.22;;;7.55;100.0
64025;BME280;50266;57.446;26.936;2023-06-10T03:34:49;100607.1;;;7.58;100.0
64025;BME280;50266;57.446;26.936;2023-06-10T03:35:49;100601.09;;;7.59;100.0
64025;BME280;50266;57.446;26.936;2023-06-10T03:36:49;100603.88;;;7.69;100.0
64025;BME280;50266;57.446;26.936;2023-06-10T03:37:49;100601.57;;;7.75;100.0
64025;BME280;50266;57.446;26.936;2023-06-10T03:38:49;100608.88;;;7.66;100.0
64025;BME280;50266;57.446;26.936;2023-06-10T03:39:49;100606.53;;;7.7;100.0
64025;BME280;50266;57.446;26.936;2023-06-10T03:40:49;100609.05;;;7.81;100.0
64025;BME280;50266;57.446;26.936;2023-06-10T03:41:49;100609.73;;;7.99;100.0
64025;BME280;50266;57.446;26.936;2023-06-10T03:42:49;100605.66;;;8.02;100.0
64025;BME280;50266;57.446;26.936;2023-06-10T03:43:49;100620.55;;;8.02;100.0
64025;BME280;50266;57.446;26.936;2023-06-10T03:44:49;100627.23;;;8.03;100.0
64025;BME280;50266;57.446;26.936;2023-06-10T03:45:49;100621.23;;;8.07;100.0
64025;BME280;50266;57.446;26.936;2023-06-10T03:46:49;100626.84;;;8.13;100.0
64025;BME280;50266;57.446;26.936;2023-06-10T03:47:49;100621.52;;;8.04;100.0
64025;BME280;50266;57.446;26.936;2023-06-10T03:48:49;100615.81;;;8.02;100.0
64025;BME280;50266;57.446;26.936;2023-06-10T03:49:49;100624.59;;;8.08;100.0
64025;BME280;50266;57.446;26.936;2023-06-10T03:50:49;100620.17;;;7.96;100.0
64025;BME280;50266;57.446;26.936;2023-06-10T03:51:49;100621.55;;;8.04;100.0
64025;BME280;50266;57.446;26.936;2023-06-10T03:52:49;100622.59;;;8.02;100.0
64025;BME280;50266;57.446;26.936;2023-06-10T03:53:49;100626.29;;;8.05;100.0
64025;BME280;50266;57.446;26.936;2023-06-10T03:54:49;100628.96;;;8.09;100.0
64025;BME280;50266;57.446;26.936;2023-06-10T03:55:49;100626.74;;;8.14;100.0
64025;BME280;50266;57.446;26.936;2023-06-10T03:56:49;100625.98;;;8.09;100.0
64025;BME280;50266;57.446;26.936;2023-06-10T03:57:49;100624.26;;;8.14;100.0
64025;BME280;50266;57.446;26.936;2023-06-10T03:58:49;100625.89;;;8.22;100.0
64025;BME280;50266;57.446;26.936;2023-06-10T03:59:49;100625.53;;;8.35;100.0
64025;BME280;50266;57.446;26.936;2023-06-10T04:00:49;100625.41;;;8.38;100.0
64025;BME280;50266;57.446;26.936;2023-06-10T04:01:49;100621.38;;;8.46;100.0
64025;BME280;50266;57.446;26.936;2023-06-10T04:02:49;100623.11;;;8.49;100.0
64025;BME280;50266;57.446;26.936;2023-06-10T04:03:49;100622.58;;;8.47;100.0
64025;BME280;50266;57.446;26.936;2023-06-10T04:04:49;100622.97;;;8.61;100.0
64025;BME280;50266;57.446;26.936;2023-06-10T04:05:49;100633.34;;;8.7;100.0
64025;BME280;50266;57.446;26.936;2023-06-10T04:06:49;100629.89;;;8.69;100.0
64025;BME280;50266;57.446;26.936;2023-06-10T04:07:49;100631.1;;;8.75;100.0
64025;BME280;50266;57.446;26.936;2023-06-10T04:08:49;100632.03;;;8.74;100.0
64025;BME280;50266;57.446;26.936;2023-06-10T04:09:49;100630.87;;;8.74;100.0
64025;BME280;50266;57.446;26.936;2023-06-10T04:10:49;100629.08;;;8.75;100.0
64025;BME280;50266;57.446;26.936;2023-06-10T04:11:49;100626.27;;;8.76;100.0
64025;BME280;50266;57.446;26.936;2023-06-10T04:12:49;100627.86;;;8.76;100.0
64025;BME280;50266;57.446;26.936;2023-06-10T04:13:50;100624.44;;;8.73;100.0
64025;BME280;50266;57.446;26.936;2023-06-10T04:14:49;100627.5;;;8.79;100.0
64025;BME280;50266;57.446;26.936;2023-06-10T04:15:50;100627.27;;;8.89;100.0
64025;BME280;50266;57.446;26.936;2023-06-10T04:16:50;100626.75;;;8.91;100.0
64025;BME280;50266;57.446;26.936;2023-06-10T04:17:50;100632.92;;;8.96;100.0
64025;BME280;50266;57.446;26.936;2023-06-10T04:18:50;100631.81;;;9.02;100.0
64025;BME280;50266;57.446;26.936;2023-06-10T04:19:50;100631.58;;;9.15;100.0
64025;BME280;50266;57.446;26.936;2023-06-10T04:20:50;100628.91;;;9.1;100.0
64025;BME280;50266;57.446;26.936;2023-06-10T04:21:50;100629.42;;;9.15;100.0
64025;BME280;50266;57.446;26.936;2023-06-10T04:22:50;100630.12;;;9.19;100.0
64025;BME280;50266;57.446;26.936;2023-06-10T04:23:50;100633.88;;;9.27;100.0
64025;BME280;50266;57.446;26.936;2023-06-10T04:24:50;100630.31;;;9.4;100.0
64025;BME280;50266;57.446;26.936;2023-06-10T04:25:50;100632.64;;;9.49;100.0
64025;BME280;50266;57.446;26.936;2023-06-10T04:26:50;100629.19;;;9.39;100.0
64025;BME280;50266;57.446;26.936;2023-06-10T04:27:50;100633.44;;;9.42;100.0
64025;BME280;50266;57.446;26.936;2023-06-10T04:28:50;100634.7;;;9.46;100.0
64025;BME280;50266;57.446;26.936;2023-06-10T04:29:50;100630.98;;;9.55;100.0
64025;BME280;50266;57.446;26.936;2023-06-10T04:30:50;100631.05;;;9.73;100.0
64025;BME280;50266;57.446;26.936;2023-06-10T04:31:50;100628.73;;;9.77;100.0
64025;BME280;50266;57.446;26.936;2023-06-10T04:32:50;100626.63;;;9.81;100.0
64025;BME280;50266;57.446;26.936;2023-06-10T04:33:50;100626.48;;;9.68;100.0
64025;BME280;50266;57.446;26.936;2023-06-10T04:34:50;100626.3;;;9.87;100.0
64025;BME280;50266;57.446;26.936;2023-06-10T04:35:50;100626.98;;;9.92;100.0
64025;BME280;50266;57.446;26.936;2023-06-10T04:36:50;100629.98;;;9.83;100.0
64025;BME280;50266;57.446;26.936;2023-06-10T04:37:50;100629.65;;;9.87;100.0
64025;BME280;50266;57.446;26.936;2023-06-10T04:38:50;100627.68;;;9.98;100.0
64025;BME280;50266;57.446;26.936;2023-06-10T04:39:50;100632.73;;;10.09;100.0
64025;BME280;50266;57.446;26.936;2023-06-10T04:40:50;100631.76;;;9.99;100.0
64025;BME280;50266;57.446;26.936;2023-06-10T04:41:50;100629.58;;;10.09;100.0
64025;BME280;50266;57.446;26.936;2023-06-10T04:42:50;100625.97;;;10.09;100.0
64025;BME280;50266;57.446;26.936;2023-06-10T04:43:50;100624.66;;;10.15;100.0
64025;BME280;50266;57.446;26.936;2023-06-10T04:44:50;100626.02;;;10.28;100.0
64025;BME280;50266;57.446;26.936;2023-06-10T04:45:50;100625.77;;;10.23;100.0
64025;BME280;50266;57.446;26.936;2023-06-10T04:46:50;100623.52;;;10.2;100.0
64025;BME280;50266;57.446;26.936;2023-06-10T04:47:50;100627.83;;;10.36;100.0
64025;BME280;50266;57.446;26.936;2023-06-10T04:48:50;100624.2;;;10.46;100.0
64025;BME280;50266;57.446;26.936;2023-06-10T04:49:50;100623.32;;;10.41;100.0
64025;BME280;50266;57.446;26.936;2023-06-10T04:50:50;100620.91;;;10.27;100.0
64025;BME280;50266;57.446;26.936;2023-06-10T04:51:50;100624.98;;;10.18;100.0
64025;BME280;50266;57.446;26.936;2023-06-10T04:52:50;100627.12;;;10.35;100.0
64025;BME280;50266;57.446;26.936;2023-06-10T04:53:50;100626.03;;;10.36;100.0
64025;BME280;50266;57.446;26.936;2023-06-10T04:54:50;100623.98;;;10.49;100.0
64025;BME280;50266;57.446;26.936;2023-06-10T04:55:50;100626.56;;;10.44;100.0
64025;BME280;50266;57.446;26.936;2023-06-10T04:56:50;100624.94;;;10.54;100.0
64025;BME280;50266;57.446;26.936;2023-06-10T04:57:50;100629.52;;;10.46;100.0
64025;BME280;50266;57.446;26.936;2023-06-10T04:58:50;100632.44;;;10.64;100.0
64025;BME280;50266;57.446;26.936;2023-06-10T04:59:50;100630.89;;;10.67;100.0
64025;BME280;50266;57.446;26.936;2023-06-10T05:00:50;100630.62;;;10.83;100.0
64025;BME280;50266;57.446;26.936;2023-06-10T05:01:50;100628.38;;;10.64;100.0
64025;BME280;50266;57.446;26.936;2023-06-10T05:02:50;100635.0;;;10.79;100.0
64025;BME280;50266;57.446;26.936;2023-06-10T05:03:50;100633.05;;;10.83;100.0
64025;BME280;50266;57.446;26.936;2023-06-10T05:04:50;100633.84;;;11.02;100.0
64025;BME280;50266;57.446;26.936;2023-06-10T05:05:50;100631.96;;;10.95;100.0
64025;BME280;50266;57.446;26.936;2023-06-10T05:06:50;100634.0;;;10.99;100.0
64025;BME280;50266;57.446;26.936;2023-06-10T05:07:50;100637.08;;;11.19;100.0
64025;BME280;50266;57.446;26.936;2023-06-10T05:08:50;100632.34;;;10.92;100.0
64025;BME280;50266;57.446;26.936;2023-06-10T05:09:50;100630.03;;;10.75;100.0
64025;BME280;50266;57.446;26.936;2023-06-10T05:10:50;100634.47;;;10.73;100.0
64025;BME280;50266;57.446;26.936;2023-06-10T05:11:50;100635.7;;;11.03;100.0
64025;BME280;50266;57.446;26.936;2023-06-10T05:12:50;100639.4;;;11.09;100.0
64025;BME280;50266;57.446;26.936;2023-06-10T05:13:50;100642.84;;;10.85;100.0
64025;BME280;50266;57.446;26.936;2023-06-10T05:14:50;100640.55;;;10.94;100.0
64025;BME280;50266;57.446;26.936;2023-06-10T05:15:50;100643.31;;;11.16;100.0